This is the latest recevied weather packets stored in our database for station/object DC8RAI-12. If no packets are shown the sender has not sent any weather packets the latest 10 day(s).
| Time | Temp. | Humidity | Pressure | Rain* | Wind** | Luminosity | Snow |
|---|---|---|---|---|---|---|---|
| 1777350589 | 4.44° C | 73% | 1017.6 hPa | - | - | - | - |
| 1777349689 | 3.33° C | 77% | 1017.7 hPa | - | - | - | - |
| 1777348789 | 2.78° C | 78% | 1017.8 hPa | - | - | - | - |
| 1777347889 | 3.33° C | 76% | 1017.9 hPa | - | - | - | - |
| 1777346989 | 3.89° C | 75% | 1017.8 hPa | - | - | - | - |
| 1777346088 | 3.89° C | 74% | 1017.7 hPa | - | - | - | - |
| 1777345188 | 4.44° C | 72% | 1017.8 hPa | - | - | - | - |
| 1777343388 | 4.44° C | 71% | 1017.7 hPa | - | - | - | - |
| 1777342488 | 4.44° C | 71% | 1018 hPa | - | - | - | - |
| 1777340688 | 5° C | 70% | 1018.1 hPa | - | - | - | - |
| 1777338887 | 5° C | 72% | 1018 hPa | - | - | - | - |
| 1777337086 | 5.56° C | 71% | 1018 hPa | - | - | - | - |
| 1777332585 | 6.67° C | 65% | 1018.2 hPa | - | - | - | - |
| 1777313686 | 14.44° C | 48% | 1018.3 hPa | - | - | - | - |
| 1777312786 | 15° C | 46% | 1018.3 hPa | - | - | - | - |
| 1777310985 | 17.22° C | 41% | 1018.2 hPa | - | - | - | - |
| 1777310085 | 17.78° C | 39% | 1018.2 hPa | - | - | - | - |
| 1777305585 | 20.56° C | 34% | 1018 hPa | - | - | - | - |
| 1777303785 | 21.11° C | 30% | 1018.1 hPa | - | - | - | - |
| 1777300184 | 22.22° C | 28% | 1018.6 hPa | - | - | - | - |
| 1777299284 | 22.78° C | 31% | 1018.6 hPa | - | - | - | - |
| 1777296583 | 21.67° C | 32% | 1019.2 hPa | - | - | - | - |
| 1777295683 | 20.56° C | 31% | 1019.3 hPa | - | - | - | - |
| 1777292984 | 22.78° C | 31% | 1019.6 hPa | - | - | - | - |
| 1777289384 | 22.78° C | 31% | 1020.2 hPa | - | - | - | - |
* Rain since midnight (hover to see other rain measurements)
** Current wind speed in m/s (hover to see current wind gust speed)